KGKJ

Port Meadville Airport

Meadville, Pennsylvania, USA
METAR KGKJ 172223Z AUTO 21005KT 10SM FEW008 BKN120 23/23 A2996 RMK AO2 T02330228
Observed Flight Rules
Aug-17 @ 22:23 UTC (14 minutes ago) Visual Flight Rules
Wind Visibility Clouds
210° at 5 knots 10 miles
  • Few at 800' AGL
  • Broken at 12,000' AGL
Temperatures Readings
Current 23°C / 73°F
Dewpoint 23°C / 73°F
Humidity 100%
Altimeter 29.96" Hg
Pressure 1015 hPa
Elevation 428
METAR KGKJ 172223Z AUTO 21005KT 10SM FEW008 BKN120 23/23 A2996 RMK AO2 T02330228
Observed Flight Rules
Aug-17 @ 22:23 UTC
(14 minutes ago)
VFR
Wind Visibility
210° at 5 knots 10 miles
Clouds
  • Few at 800' AGL
  • Broken at 12,000' AGL
Temperature Dewpoint
23°C / 73°F 23°C / 73°F
Humidity Altimeter Pressure
100% 29.96" Hg 1015 hPa